This is the latest recevied weather packets stored in our database for station/object WA2TQI. If no packets are shown the sender has not sent any weather packets the latest 10 day(s).
| Time | Temp. | Humidity | Pressure | Rain* | Wind** | Luminosity | Snow |
|---|---|---|---|---|---|---|---|
| 1778001715 | 28.33° C | 48% | 1011.4 hPa | 0 mm | - | - | - |
| 1778001415 | 28.33° C | 48% | 1011.6 hPa | 0 mm | - | - | - |
| 1778001113 | 28.89° C | 48% | 1011.5 hPa | 0 mm | - | - | - |
| 1778000810 | 28.33° C | 49% | 1011.8 hPa | 0 mm | - | - | - |
| 1778000506 | 28.33° C | 48% | 1011.6 hPa | 0 mm | - | - | - |
| 1778000206 | 27.78° C | 48% | 1011.8 hPa | 0 mm | - | - | - |
| 1777999903 | 27.22° C | 49% | 1011.7 hPa | 0 mm | - | - | - |
| 1777999598 | 27.22° C | 50% | 1011.6 hPa | 0 mm | - | - | - |
| 1777999296 | 27.22° C | 50% | 1011.6 hPa | 0 mm | - | - | - |
| 1777998994 | 27.78° C | 50% | 1011.7 hPa | 0 mm | - | - | - |
| 1777998692 | 26.67° C | 52% | 1011.9 hPa | 0 mm | - | - | - |
| 1777998389 | 27.22° C | 51% | 1011.9 hPa | 0 mm | - | - | - |
| 1777998086 | 27.78° C | 51% | 1011.9 hPa | 0 mm | - | - | - |
| 1777997783 | 26.67° C | 52% | 1011.9 hPa | 0 mm | - | - | - |
| 1777997480 | 26.67° C | 52% | 1012 hPa | 0 mm | - | - | - |
| 1777997178 | 26.67° C | 52% | 1012 hPa | 0 mm | - | - | - |
| 1777996875 | 26.67° C | 52% | 1012.1 hPa | 0 mm | - | - | - |
| 1777996571 | 25.56° C | 55% | 1012.3 hPa | 0 mm | - | - | - |
| 1777996268 | 26.67° C | 53% | 1012.4 hPa | 0 mm | - | - | - |
| 1777995964 | 26.67° C | 52% | 1012.3 hPa | 0 mm | - | - | - |
| 1777995660 | 26.11° C | 52% | 1012.5 hPa | 0 mm | - | - | - |
| 1777995358 | 25.56° C | 54% | 1012.5 hPa | 0 mm | - | - | - |
| 1777995055 | 26.11° C | 53% | 1012.6 hPa | 0 mm | - | - | - |
| 1777994751 | 25.56° C | 53% | 1012.5 hPa | 0 mm | - | - | - |
| 1777994448 | 25.56° C | 54% | 1012.5 hPa | 0 mm | - | - | - |
* Rain latest hour (hover to see other rain measurements)
** Current wind speed in m/s (hover to see current wind gust speed)